Auburn Municipal Airport

KAUN · California, Estados Unidos

METAR pasados KAUN · Auburn Municipal Airport

A continuación puedes ver los METAR de los últimos días. Selecciona un año para ver los METAR más antiguos, desde el año 2007 en adelante.

21 de julio de 2024

Hora Código Tiempo Temp. Visibilidad Cielo nuboso Viento METAR/SPECI
05:15
V
26 °C 10 mi - 080° 080° 4 kt METAR KAUN 211215Z AUTO 08004KT 10SM CLR 26/11 A2989 RMK A01
04:55
V
27 °C 10 mi - 080° 080° 6 kt METAR KAUN 211155Z AUTO 08006KT 10SM CLR 27/11 A2989 RMK A01
04:35
V
26 °C 10 mi - 080° 080° 8 kt METAR KAUN 211135Z AUTO 08008KT 10SM CLR 26/11 A2989 RMK A01
04:15
V
26 °C 10 mi - 080° 080° 7 - 12 kt METAR KAUN 211115Z AUTO 08007G12KT 10SM CLR 26/11 A2989 RMK A01
03:55
V
26 °C 10 mi - 080° 080° 6 kt METAR KAUN 211055Z AUTO 08006KT 10SM CLR 26/11 A2990 RMK A01
03:35
V
26 °C 10 mi - 080° 080° 7 kt METAR KAUN 211035Z AUTO 08007KT 10SM CLR 26/11 A2990 RMK A01
03:15
V
26 °C 10 mi - 090° 090° 4 kt METAR KAUN 211015Z AUTO 09004KT 10SM CLR 26/11 A2990 RMK A01
02:55
V
27 °C 10 mi - 090° 090° 6 kt METAR KAUN 210955Z AUTO 09006KT 10SM CLR 27/11 A2991 RMK A01
02:35
V
27 °C 10 mi - 080° 080° 7 kt METAR KAUN 210935Z AUTO 08007KT 10SM CLR 27/11 A2991 RMK A01
02:15
V
27 °C 10 mi - 080° 080° 7 kt METAR KAUN 210915Z AUTO 08007KT 10SM CLR 27/11 A2991 RMK A01
01:55
V
27 °C 10 mi - 080° 080° 7 kt METAR KAUN 210855Z AUTO 08007KT 10SM CLR 27/11 A2991 RMK A01
01:35
V
27 °C 10 mi - 080° 080° 5 kt METAR KAUN 210835Z AUTO 08005KT 10SM CLR 27/11 A2991 RMK A01
01:15
V
26 °C 10 mi - 110° 110° 3 kt METAR KAUN 210815Z AUTO 11003KT 10SM CLR 26/11 A2991 RMK A01
00:55
V
27 °C 10 mi - 120° 120° 4 kt METAR KAUN 210755Z AUTO 12004KT 10SM CLR 27/12 A2992 RMK A01
00:35
V
27 °C 10 mi - 150° 150° 3 kt METAR KAUN 210735Z AUTO 15003KT 10SM CLR 27/12 A2992 RMK A01
00:15
V
28 °C 10 mi - 110° 110° 5 kt METAR KAUN 210715Z AUTO 11005KT 10SM CLR 28/11 A2992 RMK A01

20 de julio de 2024

Hora Código Tiempo Temp. Visibilidad Cielo nuboso Viento METAR/SPECI
23:55
V
28 °C 10 mi - 110° 110° 6 kt METAR KAUN 210655Z AUTO 11006KT 10SM CLR 28/11 A2992 RMK A01
23:35
V
29 °C 10 mi - 120° 120° 8 kt METAR KAUN 210635Z AUTO 12008KT 10SM CLR 29/11 A2992 RMK A01
23:15
V
29 °C 10 mi - 120° 120° 7 kt METAR KAUN 210615Z AUTO 12007KT 10SM CLR 29/11 A2992 RMK A01
22:55
V
29 °C 10 mi - 110° 110° 6 kt METAR KAUN 210555Z AUTO 11006KT 10SM CLR 29/10 A2992 RMK A01
22:35
V
29 °C 10 mi - 110° 110° 6 kt METAR KAUN 210535Z AUTO 11006KT 10SM CLR 29/10 A2993 RMK A01
22:15
V
28 °C 10 mi - 070° 070° 3 kt METAR KAUN 210515Z AUTO 07003KT 10SM CLR 28/10 A2993 RMK A01
21:55
V
29 °C 10 mi - 360° 360° 0 kt METAR KAUN 210455Z AUTO 00000KT 10SM CLR 29/10 A2992 RMK A01
21:35
V
31 °C 10 mi - 150° 150° 3 kt METAR KAUN 210435Z AUTO 15003KT 10SM CLR 31/10 A2993 RMK A01
21:15
V
31 °C 10 mi - 140° 140° 3 kt METAR KAUN 210415Z AUTO 14003KT 10SM CLR 31/10 A2992 RMK A01
20:55
V
32 °C 10 mi - 160° 160° 5 kt METAR KAUN 210355Z AUTO 16005KT 10SM CLR 32/10 A2992 RMK A01
20:35
V
32 °C 10 mi - 180° 180° 5 kt METAR KAUN 210335Z AUTO 18005KT 10SM CLR 32/11 A2991 RMK A01
20:15
V
33 °C 10 mi - 190° 190° 7 kt METAR KAUN 210315Z AUTO 19007KT 10SM CLR 33/10 A2991 RMK A01
19:55
V
34 °C 10 mi - 200° 200° 7 kt METAR KAUN 210255Z AUTO 20007KT 10SM CLR 34/11 A2990 RMK A01
19:35
V
35 °C 10 mi - 260° 260° 4 kt METAR KAUN 210235Z AUTO 26004KT 10SM CLR 35/06 A2990 RMK A01
19:15
V
36 °C 10 mi - 250° 250° 3 kt METAR KAUN 210215Z AUTO 25003KT 10SM CLR 36/06 A2990 RMK A01
18:55
V
36 °C 10 mi - 250° 250° 6 kt METAR KAUN 210155Z AUTO 25006KT 10SM CLR 36/07 A2989 RMK A01
18:35
V
37 °C 10 mi - 230° 230° 9 kt METAR KAUN 210135Z AUTO 23009KT 10SM CLR 37/08 A2989 RMK A01
18:15
V
37 °C 10 mi - 270° 270° 6 kt METAR KAUN 210115Z AUTO 27006KT 10SM CLR 37/08 A2989 RMK A01
17:55
V
37 °C 9 mi - 230° 230° 8 kt METAR KAUN 210055Z AUTO 23008KT 9SM CLR 37/09 A2989 RMK A01
17:35
V
37 °C 10 mi - Var Var 5 kt METAR KAUN 210035Z AUTO VRB05KT 10SM CLR 37/09 A2990 RMK A01
17:15
V
37 °C 10 mi - Var Var 4 - 10 kt METAR KAUN 210015Z AUTO VRB04G10KT 10SM CLR 37/09 A2990 RMK A01
16:55
V
37 °C 10 mi - 230° 230° 8 kt METAR KAUN 202355Z AUTO 23008KT 10SM CLR 37/09 A2991 RMK A01
16:35
V
38 °C 10 mi - 230° 230° 8 kt METAR KAUN 202335Z AUTO 23008KT 10SM CLR 38/09 A2991 RMK A01
16:15
V
38 °C 10 mi - 230° 230° 7 - 12 kt METAR KAUN 202315Z AUTO 23007G12KT 200V260 10SM CLR 38/09 A2992 RMK A01
15:55
V
37 °C 9 mi - Var Var 5 kt METAR KAUN 202255Z AUTO VRB05KT 9SM CLR 37/09 A2992 RMK A01
15:35
V
38 °C 10 mi - 220° 220° 7 - 12 kt METAR KAUN 202235Z AUTO 22007G12KT 170V250 10SM CLR 38/09 A2992 RMK A01
15:15
V
38 °C 10 mi - 220° 220° 8 kt METAR KAUN 202215Z AUTO 22008KT 180V270 10SM CLR 38/10 A2992 RMK A01
14:55
V
37 °C 10 mi - 240° 240° 8 kt METAR KAUN 202155Z AUTO 24008KT 10SM CLR 37/09 A2993 RMK A01
14:35
V
37 °C 9 mi - 240° 240° 6 kt METAR KAUN 202135Z AUTO 24006KT 9SM CLR 37/09 A2993 RMK A01
14:15
V
37 °C 10 mi - 240° 240° 5 - 12 kt METAR KAUN 202115Z AUTO 24005G12KT 10SM CLR 37/10 A2994 RMK A01
13:55
V
37 °C 10 mi - Var Var 5 kt METAR KAUN 202055Z AUTO VRB05KT 10SM CLR 37/10 A2994 RMK A01
13:35
V
36 °C 10 mi - 230° 230° 7 kt METAR KAUN 202035Z AUTO 23007KT 10SM CLR 36/09 A2995 RMK A01
13:15
V
36 °C 9 mi - 190° 190° 5 kt METAR KAUN 202015Z AUTO 19005KT 9SM CLR 36/10 A2995 RMK A01
12:55
V
35 °C 9 mi - Var Var 5 kt METAR KAUN 201955Z AUTO VRB05KT 9SM CLR 35/11 A2995 RMK A01
12:15
V
35 °C 9 mi - 190° 190° 7 kt METAR KAUN 201915Z AUTO 19007KT 9SM CLR 35/10 A2996 RMK A01
11:55
V
35 °C 10 mi - Var Var 5 kt METAR KAUN 201855Z AUTO VRB05KT 10SM CLR 35/10 A2996 RMK A01
11:35
V
34 °C 10 mi - Var Var 4 kt METAR KAUN 201835Z AUTO VRB04KT 10SM CLR 34/10 A2997 RMK A01
11:15
V
34 °C 10 mi - Var Var 6 kt METAR KAUN 201815Z AUTO VRB06KT 10SM CLR 34/11 A2997 RMK A01
10:55
V
33 °C 10 mi - Var Var 5 kt METAR KAUN 201755Z AUTO VRB05KT 10SM CLR 33/12 A2997 RMK A01
10:35
V
33 °C 9 mi - 360° 360° 0 kt METAR KAUN 201735Z AUTO 00000KT 9SM CLR 33/11 A2997 RMK A01
10:15
V
33 °C 10 mi - Var Var 3 kt METAR KAUN 201715Z AUTO VRB03KT 10SM CLR 33/11 A2997 RMK A01
09:55
V
33 °C 8 mi - 210° 210° 5 kt METAR KAUN 201655Z AUTO 21005KT 8SM CLR 33/11 A2997 RMK A01
09:35
V
32 °C 10 mi - 360° 360° 0 kt METAR KAUN 201635Z AUTO 00000KT 10SM CLR 32/10 A2996 RMK A01
09:15
V
31 °C 10 mi - Var Var 3 kt METAR KAUN 201615Z AUTO VRB03KT 10SM CLR 31/09 A2996 RMK A01
08:55
V
31 °C 10 mi - 360° 360° 0 kt METAR KAUN 201555Z AUTO 00000KT 10SM CLR 31/11 A2996 RMK A01
08:35
V
30 °C 10 mi - 360° 360° 0 kt METAR KAUN 201535Z AUTO 00000KT 10SM CLR 30/11 A2996 RMK A01
08:15
V
29 °C 10 mi - 090° 090° 4 kt METAR KAUN 201515Z AUTO 09004KT 10SM CLR 29/11 A2996 RMK A01
07:55
V
29 °C 10 mi - 090° 090° 5 kt METAR KAUN 201455Z AUTO 09005KT 10SM CLR 29/10 A2995 RMK A01
07:35
V
27 °C 10 mi - 090° 090° 4 kt METAR KAUN 201435Z AUTO 09004KT 10SM CLR 27/10 A2995 RMK A01
07:15
V
27 °C 10 mi - 080° 080° 5 kt METAR KAUN 201415Z AUTO 08005KT 10SM CLR 27/10 A2994 RMK A01
06:55
V
26 °C 10 mi - 080° 080° 6 kt METAR KAUN 201355Z AUTO 08006KT 10SM CLR 26/10 A2994 RMK A01
06:35
V
25 °C 10 mi - 080° 080° 6 kt METAR KAUN 201335Z AUTO 08006KT 10SM CLR 25/10 A2993 RMK A01
06:15
V
22 °C 10 mi - 070° 070° 4 kt METAR KAUN 201315Z AUTO 07004KT 10SM CLR 22/10 A2993 RMK A01
05:55
V
24 °C 10 mi - 360° 360° 0 kt METAR KAUN 201255Z AUTO 00000KT 10SM CLR 24/10 A2993 RMK A01
05:35
V
24 °C 10 mi - 100° 100° 5 kt METAR KAUN 201235Z AUTO 10005KT 10SM CLR 24/10 A2993 RMK A01
05:15
V
24 °C 10 mi - 100° 100° 3 kt METAR KAUN 201215Z AUTO 10003KT 10SM CLR 24/10 A2992 RMK A01
04:55
V
25 °C 10 mi - 360° 360° 0 kt METAR KAUN 201155Z AUTO 00000KT 10SM CLR 25/10 A2992 RMK A01
04:35
V
24 °C 10 mi - 360° 360° 0 kt METAR KAUN 201135Z AUTO 00000KT 10SM CLR 24/10 A2992 RMK A01
04:15
V
24 °C 10 mi - 360° 360° 0 kt METAR KAUN 201115Z AUTO 00000KT 10SM CLR 24/10 A2992 RMK A01
03:55
V
25 °C 10 mi - 360° 360° 0 kt METAR KAUN 201055Z AUTO 00000KT 10SM CLR 25/10 A2992 RMK A01
03:35
V
25 °C 10 mi - 070° 070° 3 kt METAR KAUN 201035Z AUTO 07003KT 10SM CLR 25/09 A2992 RMK A01
03:15
V
25 °C 10 mi - 360° 360° 0 kt METAR KAUN 201015Z AUTO 00000KT 10SM CLR 25/09 A2993 RMK A01
02:35
V
26 °C 10 mi - 360° 360° 0 kt METAR KAUN 200935Z AUTO 00000KT 10SM CLR 26/08 A2993 RMK A01
02:15
V
26 °C 10 mi - 060° 060° 5 kt METAR KAUN 200915Z AUTO 06005KT 10SM CLR 26/08 A2994 RMK A01
01:55
V
26 °C 10 mi - 060° 060° 4 kt METAR KAUN 200855Z AUTO 06004KT 10SM CLR 26/08 A2995 RMK A01
01:35
V
26 °C 10 mi - 070° 070° 5 kt METAR KAUN 200835Z AUTO 07005KT 10SM CLR 26/08 A2995 RMK A01
01:15
V
26 °C 10 mi - 090° 090° 4 kt METAR KAUN 200815Z AUTO 09004KT 10SM CLR 26/08 A2995 RMK A01
00:55
V
27 °C 10 mi - 100° 100° 7 kt METAR KAUN 200755Z AUTO 10007KT 10SM CLR 27/08 A2995 RMK A01
00:35
V
27 °C 10 mi - 090° 090° 6 kt METAR KAUN 200735Z AUTO 09006KT 10SM CLR 27/08 A2996 RMK A01
00:15
V
28 °C 10 mi - 080° 080° 6 kt METAR KAUN 200715Z AUTO 08006KT 10SM CLR 28/08 A2996 RMK A01

19 de julio de 2024

Hora Código Tiempo Temp. Visibilidad Cielo nuboso Viento METAR/SPECI
23:55
V
28 °C 10 mi - 080° 080° 6 kt METAR KAUN 200655Z AUTO 08006KT 10SM CLR 28/07 A2996 RMK A01
23:35
V
28 °C 10 mi - 090° 090° 6 kt METAR KAUN 200635Z AUTO 09006KT 10SM CLR 28/07 A2997 RMK A01
23:15
V
27 °C 10 mi - 360° 360° 0 kt METAR KAUN 200615Z AUTO 00000KT 10SM CLR 27/09 A2997 RMK A01
22:55
V
26 °C 10 mi - 360° 360° 0 kt METAR KAUN 200555Z AUTO 00000KT 10SM CLR 26/08 A2997 RMK A01
22:35
V
26 °C 10 mi - 360° 360° 0 kt METAR KAUN 200535Z AUTO 00000KT 10SM CLR 26/09 A2997 RMK A01
22:15
V
27 °C 10 mi - 360° 360° 0 kt METAR KAUN 200515Z AUTO 00000KT 10SM CLR 27/08 A2997 RMK A01
21:55
V
26 °C 10 mi - 360° 360° 0 kt METAR KAUN 200455Z AUTO 00000KT 10SM CLR 26/09 A2997 RMK A01
21:35
V
28 °C 10 mi - 360° 360° 0 kt METAR KAUN 200435Z AUTO 00000KT 10SM CLR 28/09 A2997 RMK A01
21:15
V
27 °C 10 mi - 360° 360° 0 kt METAR KAUN 200415Z AUTO 00000KT 10SM CLR 27/09 A2996 RMK A01
20:55
V
28 °C 10 mi - 360° 360° 0 kt METAR KAUN 200355Z AUTO 00000KT 10SM CLR 28/09 A2995 RMK A01
20:35
V
31 °C 10 mi - 270° 270° 3 kt METAR KAUN 200335Z AUTO 27003KT 10SM CLR 31/09 A2995 RMK A01
20:15
V
33 °C 10 mi - 360° 360° 0 kt METAR KAUN 200315Z AUTO 00000KT 10SM CLR 33/08 A2995 RMK A01
19:55
V
35 °C 10 mi - 360° 360° 0 kt METAR KAUN 200255Z AUTO 00000KT 10SM CLR 35/06 A2994 RMK A01
19:35
V
36 °C 10 mi - 290° 290° 4 kt METAR KAUN 200235Z AUTO 29004KT 10SM CLR 36/03 A2994 RMK A01
19:15
V
36 °C 10 mi - 280° 280° 4 kt METAR KAUN 200215Z AUTO 28004KT 10SM CLR 36/03 A2994 RMK A01
18:55
V
37 °C 10 mi - 290° 290° 8 kt METAR KAUN 200155Z AUTO 29008KT 10SM CLR 37/03 A2994 RMK A01
18:35
V
37 °C 10 mi - 300° 300° 6 kt METAR KAUN 200135Z AUTO 30006KT 10SM CLR 37/03 A2994 RMK A01
18:15
V
37 °C 10 mi - 290° 290° 8 kt METAR KAUN 200115Z AUTO 29008KT 10SM CLR 37/02 A2994 RMK A01
17:55
V
37 °C 10 mi - 300° 300° 8 kt METAR KAUN 200055Z AUTO 30008KT 10SM CLR 37/02 A2995 RMK A01
17:35
V
38 °C 10 mi - Var Var 5 - 13 kt METAR KAUN 200035Z AUTO VRB05G13KT 10SM CLR 38/02 A2995 RMK A01
17:15
V
38 °C 10 mi - 300° 300° 7 - 14 kt METAR KAUN 200015Z AUTO 30007G14KT 10SM CLR 38/02 A2995 RMK A01
16:55
V
38 °C 10 mi - 270° 270° 10 kt METAR KAUN 192355Z AUTO 27010KT 10SM CLR 38/04 A2995 RMK A01
16:35
V
38 °C 10 mi - 290° 290° 9 - 16 kt METAR KAUN 192335Z AUTO 29009G16KT 10SM CLR 38/04 A2996 RMK A01
16:15
V
38 °C 10 mi - 280° 280° 10 kt METAR KAUN 192315Z AUTO 28010KT 10SM CLR 38/04 A2997 RMK A01
15:55
V
38 °C 10 mi - 290° 290° 9 kt METAR KAUN 192255Z AUTO 29009KT 10SM CLR 38/04 A2997 RMK A01
15:35
V
38 °C 10 mi - 290° 290° 7 - 13 kt METAR KAUN 192235Z AUTO 29007G13KT 10SM CLR 38/05 A2998 RMK A01
15:15
V
38 °C 10 mi - 280° 280° 7 kt METAR KAUN 192215Z AUTO 28007KT 10SM CLR 38/07 A2999 RMK A01
14:55
V
37 °C 10 mi - 290° 290° 10 kt METAR KAUN 192155Z AUTO 29010KT 10SM CLR 37/07 A2999 RMK A01
14:35
V
37 °C 10 mi - Var Var 4 - 10 kt METAR KAUN 192135Z AUTO VRB04G10KT 10SM CLR 37/06 A3000 RMK A01
14:15
V
37 °C 10 mi - 280° 280° 8 kt METAR KAUN 192115Z AUTO 28008KT 10SM CLR 37/08 A3000 RMK A01
13:55
V
36 °C 10 mi - 250° 250° 8 kt METAR KAUN 192055Z AUTO 25008KT 10SM CLR 36/09 A3001 RMK A01
13:35
V
35 °C 9 mi - Var Var 6 kt METAR KAUN 192035Z AUTO VRB06KT 9SM CLR 35/10 A3001 RMK A01
13:15
V
35 °C 9 mi - Var Var 6 kt METAR KAUN 192015Z AUTO VRB06KT 9SM CLR 35/10 A3001 RMK A01
12:55
V
34 °C 9 mi - Var Var 5 kt METAR KAUN 191955Z AUTO VRB05KT 9SM CLR 34/10 A3002 RMK A01
12:35
V
34 °C 10 mi - 250° 250° 5 kt METAR KAUN 191935Z AUTO 25005KT 10SM CLR 34/11 A3002 RMK A01
12:15
V
33 °C 10 mi - Var Var 5 kt METAR KAUN 191915Z AUTO VRB05KT 10SM CLR 33/11 A3002 RMK A01
11:55
V
32 °C 9 mi - 280° 280° 8 kt METAR KAUN 191855Z AUTO 28008KT 9SM CLR 32/11 A3002 RMK A01
11:35
V
32 °C 9 mi - 240° 240° 4 - 11 kt METAR KAUN 191835Z AUTO 24004G11KT 9SM CLR 32/12 A3002 RMK A01
11:15
V
32 °C 10 mi - 260° 260° 6 kt METAR KAUN 191815Z AUTO 26006KT 10SM CLR 32/12 A3002 RMK A01
10:55
V
32 °C 10 mi - Var Var 6 kt METAR KAUN 191755Z AUTO VRB06KT 10SM CLR 32/11 A3001 RMK A01
10:35
V
31 °C 10 mi - Var Var 5 kt METAR KAUN 191735Z AUTO VRB05KT 10SM CLR 31/11 A3002 RMK A01
10:15
V
32 °C 10 mi - Var Var 4 kt METAR KAUN 191715Z AUTO VRB04KT 10SM CLR 32/11 A3002 RMK A01
09:35
V
30 °C 10 mi - Var Var 4 kt METAR KAUN 191635Z AUTO VRB04KT 10SM CLR 30/09 A3002 RMK A01
09:15
V
29 °C 10 mi - 360° 360° 0 kt METAR KAUN 191615Z AUTO 00000KT 10SM CLR 29/10 A3002 RMK A01
08:55
V
29 °C 10 mi - 360° 360° 0 kt METAR KAUN 191555Z AUTO 00000KT 10SM 29/11 A3002 RMK A01
08:35
U
28 °C 0 mi - 360° 360° 0 kt METAR KAUN 191535Z AUTO 00000KT 28/11 A3002 RMK A01
08:15
U
0 °C 0 mi - 360° 360° 0 kt METAR KAUN 191515Z AUTO RMK A01 PNO
07:55
V
27 °C 10 mi - 360° 360° 0 kt METAR KAUN 191455Z AUTO 00000KT 10SM CLR 27/09 A3002 RMK A01
07:35
V
27 °C 10 mi - 360° 360° 0 kt METAR KAUN 191435Z AUTO 00000KT 10SM CLR 27/08 A3002 RMK A01
07:15
V
25 °C 9 mi - 360° 360° 0 kt METAR KAUN 191415Z AUTO 00000KT 9SM CLR 25/08 A3002 RMK A01
06:55
V
25 °C 10 mi - 360° 360° 0 kt METAR KAUN 191355Z AUTO 00000KT 10SM CLR 25/08 A3002 RMK A01
06:35
V
23 °C 10 mi - 090° 090° 4 kt METAR KAUN 191335Z AUTO 09004KT 10SM CLR 23/08 A3001 RMK A01
06:15
V
22 °C 10 mi - 100° 100° 3 kt METAR KAUN 191315Z AUTO 10003KT 10SM CLR 22/07 A3001 RMK A01
05:55
V
22 °C 10 mi - 090° 090° 5 kt METAR KAUN 191255Z AUTO 09005KT 10SM CLR 22/07 A3001 RMK A01
05:35
V
23 °C 10 mi - 050° 050° 4 kt METAR KAUN 191235Z AUTO 05004KT 10SM CLR 23/07 A3001 RMK A01
05:15
V
24 °C 10 mi - 070° 070° 4 kt METAR KAUN 191215Z AUTO 07004KT 10SM CLR 24/07 A3000 RMK A01
04:55
V
24 °C 10 mi - 360° 360° 0 kt METAR KAUN 191155Z AUTO 00000KT 10SM CLR 24/08 A3000 RMK A01
04:35
V
24 °C 10 mi - 090° 090° 6 kt METAR KAUN 191135Z AUTO 09006KT 10SM CLR 24/08 A3000 RMK A01
04:15
V
24 °C 10 mi - 360° 360° 0 kt METAR KAUN 191115Z AUTO 00000KT 10SM CLR 24/08 A3000 RMK A01
03:55
V
24 °C 10 mi - 080° 080° 6 kt METAR KAUN 191055Z AUTO 08006KT 10SM CLR 24/08 A3000 RMK A01
03:35
V
24 °C 10 mi - 080° 080° 6 kt METAR KAUN 191035Z AUTO 08006KT 10SM CLR 24/08 A3000 RMK A01
03:15
V
24 °C 10 mi - 070° 070° 4 kt METAR KAUN 191015Z AUTO 07004KT 10SM CLR 24/08 A3000 RMK A01
02:55
V
25 °C 10 mi - 080° 080° 5 kt METAR KAUN 190955Z AUTO 08005KT 10SM CLR 25/08 A3000 RMK A01
02:35
V
25 °C 10 mi - 080° 080° 5 kt METAR KAUN 190935Z AUTO 08005KT 10SM CLR 25/08 A3000 RMK A01
02:15
V
25 °C 10 mi - 080° 080° 5 kt METAR KAUN 190915Z AUTO 08005KT 10SM CLR 25/08 A3000 RMK A01
01:55
V
25 °C 10 mi - 080° 080° 5 kt METAR KAUN 190855Z AUTO 08005KT 10SM CLR 25/08 A3001 RMK A01
01:35
V
26 °C 10 mi - 080° 080° 8 kt METAR KAUN 190835Z AUTO 08008KT 10SM CLR 26/09 A3001 RMK A01
01:15
V
26 °C 10 mi - 080° 080° 8 kt METAR KAUN 190815Z AUTO 08008KT 10SM CLR 26/09 A3002 RMK A01
00:55
V
26 °C 10 mi - 080° 080° 7 kt METAR KAUN 190755Z AUTO 08007KT 10SM CLR 26/09 A3002 RMK A01
00:35
V
27 °C 10 mi - 090° 090° 7 kt METAR KAUN 190735Z AUTO 09007KT 10SM CLR 27/09 A3002 RMK A01
00:15
V
26 °C 10 mi - 080° 080° 7 kt METAR KAUN 190715Z AUTO 08007KT 10SM CLR 26/09 A3002 RMK A01

18 de julio de 2024

Hora Código Tiempo Temp. Visibilidad Cielo nuboso Viento METAR/SPECI
23:55
V
27 °C 10 mi - 080° 080° 7 kt METAR KAUN 190655Z AUTO 08007KT 10SM CLR 27/10 A3002 RMK A01
23:35
V
26 °C 10 mi - 080° 080° 7 kt METAR KAUN 190635Z AUTO 08007KT 10SM CLR 26/09 A3003 RMK A01
23:15
V
26 °C 10 mi - 080° 080° 5 kt METAR KAUN 190615Z AUTO 08005KT 10SM CLR 26/09 A3003 RMK A01
22:55
V
26 °C 10 mi - 100° 100° 5 kt METAR KAUN 190555Z AUTO 10005KT 10SM CLR 26/09 A3003 RMK A01
Cambiar esta información